首页
METAR-TAF:

METAR-TAF

机场 :

拉纳卡, 塞浦路斯

拉纳卡国际机场

纬度: 34-53N, 经度: 033-38E, 海拔: 2米

当前天气观测

该预报发布于30分钟前的14:00 UTC
风速19节,风向南转西南,有时为37节阵风
温度 15°C
湿度 94%
气压 1005 hPa
能見度: 3000
少量云层高于400英尺
少量云层高于3000英尺, 塔状积云.
多云层高于4500英尺
小阵雨, 浮尘

METAR: LCLK 221400Z 20019G37KT 3000 -SHRA DU FEW004 FEW030TCU BKN045 15/14 Q1005 NOSIG

时间: 16:30 (14:30 UTC)

预报

该预报发布于3小时和0分钟前的11:30 UTC
预报有效从22日的 12点(UTC)到 23日的 12点(UTC)
风速22节,风向西南,有时为32节阵风
能见度10公里或以上
散云层高于3000英尺
几率 40% :
短暂存在
从 22日的 12点(UTC)到 23日的 12点(UTC)
能見度: 5000
散云层高于2500英尺, 塔状积云.
阵雨
几率 30% :
短暂存在
从 22日的 12点(UTC)到 23日的 06点(UTC)
风速25节,风向多变,有时为35节阵风
能見度: 2000
散云层高于2500英尺, 积雨云.
雷暴, 雨

TAF: LCLK 221130Z 2212/2312 22022G32KT 9999 SCT030 PROB40 TEMPO 2212/2312 5000 SHRA SCT025TCU PROB30 TEMPO 2212/2306 VRB25G35KT 2000 TSRA SCT025CB

超过4000个机场的气象观测和天气预报(METAR&TAF报告)。

可查询的气象台以黄色和红色小点在地图上表示。

将鼠标移到小点上方,可查看气象台名称。

然后点击查看天气观测和预报。

如需切换地图:点击带黑十字的绿色按钮放大地图;点击带横线的绿色按钮缩小地图;或者点击绿色箭头查看邻近地区的地图。


METAR-TAF: